createdAt,value
2022-11-24T00:00:55.698Z,3.10
2022-11-24T00:03:24.117Z,2.80
2022-11-24T00:05:52.499Z,2.83
2022-11-24T00:08:20.951Z,3.42
2022-11-24T00:10:49.288Z,2.85
2022-11-24T00:13:17.577Z,2.60
2022-11-24T00:15:47.248Z,3.35
2022-11-24T00:18:15.566Z,3.72
2022-11-24T00:20:43.870Z,3.10
2022-11-24T00:23:12.161Z,3.58
2022-11-24T00:25:40.451Z,3.10
2022-11-24T00:28:08.753Z,3.85
2022-11-24T00:30:37.101Z,3.33
2022-11-24T00:33:06.948Z,3.10
2022-11-24T00:35:35.231Z,3.75
2022-11-24T00:38:03.558Z,3.72
2022-11-24T00:40:34.954Z,3.60
2022-11-24T00:43:03.716Z,4.03
2022-11-24T00:45:32.014Z,3.97
2022-11-24T00:48:00.320Z,4.20
2022-11-24T00:50:30.029Z,3.60
2022-11-24T00:52:58.374Z,3.67
2022-11-24T00:55:26.729Z,4.20
2022-11-24T00:57:55.030Z,4.38
2022-11-24T01:00:23.424Z,4.60
2022-11-24T01:02:51.727Z,4.00
2022-11-24T01:05:20.140Z,3.47
2022-11-24T01:07:49.923Z,3.33
2022-11-24T01:10:18.562Z,3.70
2022-11-24T01:12:47.774Z,3.88
2022-11-24T01:15:16.095Z,4.75
2022-11-24T01:17:44.384Z,4.20
2022-11-24T01:20:12.996Z,4.20
2022-11-24T01:22:41.587Z,3.80
2022-11-24T01:25:12.093Z,3.50
2022-11-24T01:27:40.444Z,3.70
2022-11-24T01:30:09.602Z,4.20
2022-11-24T01:32:37.909Z,3.80
2022-11-24T01:35:06.834Z,3.30
2022-11-24T01:37:35.151Z,3.67
2022-11-24T01:40:03.475Z,3.33
2022-11-24T01:42:41.901Z,3.60
2022-11-24T01:45:25.023Z,3.70
2022-11-24T01:47:53.383Z,3.47
2022-11-24T01:50:22.220Z,3.40
2022-11-24T01:52:51.698Z,3.55
2022-11-24T01:55:22.563Z,3.35
2022-11-24T01:57:53.901Z,3.10
2022-11-24T02:00:22.470Z,3.50
2022-11-24T02:02:50.847Z,3.92
2022-11-24T02:05:20.728Z,3.38
2022-11-24T02:07:49.854Z,3.08
2022-11-24T02:10:18.484Z,3.30
2022-11-24T02:15:24.464Z,2.85
2022-11-24T02:17:52.780Z,3.30
2022-11-24T02:20:21.192Z,3.47
2022-11-24T02:22:53.235Z,3.75
2022-11-24T02:25:26.083Z,3.40
2022-11-24T02:27:56.427Z,3.20
2022-11-24T02:30:25.240Z,2.90
2022-11-24T02:32:54.181Z,3.13
2022-11-24T02:35:22.873Z,2.80
2022-11-24T02:37:51.190Z,2.90
2022-11-24T02:40:24.881Z,3.30
2022-11-24T02:42:55.709Z,2.90
2022-11-24T02:45:25.556Z,2.55
2022-11-24T02:47:53.848Z,2.50
2022-11-24T02:50:22.174Z,3.00
2022-11-24T02:52:50.470Z,2.95
2022-11-24T02:55:18.846Z,2.47
2022-11-24T02:57:47.204Z,2.27
2022-11-24T03:00:16.099Z,2.50
2022-11-24T03:02:45.859Z,2.50
2022-11-24T03:05:14.536Z,2.30
2022-11-24T03:07:42.908Z,2.00
2022-11-24T03:10:11.436Z,1.88
2022-11-24T03:12:39.739Z,1.88
2022-11-24T03:15:09.265Z,2.10
2022-11-24T03:17:37.577Z,1.98
2022-11-24T03:20:07.743Z,2.00
2022-11-24T03:22:36.068Z,1.67
2022-11-24T03:25:04.377Z,1.70
2022-11-24T03:27:32.984Z,1.60
2022-11-24T03:30:01.457Z,1.70
2022-11-24T03:32:29.745Z,1.10
2022-11-24T03:34:58.052Z,1.20
2022-11-24T03:37:28.163Z,1.10
2022-11-24T03:39:56.528Z,1.30
2022-11-24T03:42:24.845Z,1.23
2022-11-24T03:44:53.116Z,1.30
2022-11-24T03:47:21.442Z,1.10
2022-11-24T03:49:49.770Z,1.30
2022-11-24T03:52:18.098Z,2.00
2022-11-24T03:54:47.994Z,1.77
2022-11-24T03:57:16.327Z,2.28
2022-11-24T03:59:44.600Z,2.67
2022-11-24T04:02:13.015Z,2.10
2022-11-24T04:04:44.703Z,2.63
2022-11-24T04:07:15.432Z,3.00
2022-11-24T04:09:43.767Z,2.90
2022-11-24T04:12:31.067Z,3.05
2022-11-24T04:14:59.347Z,3.53
2022-11-24T04:17:27.596Z,3.33
2022-11-24T04:19:55.866Z,3.08
2022-11-24T04:22:24.072Z,3.20
2022-11-24T04:24:52.272Z,2.70
2022-11-24T04:27:21.868Z,3.80
2022-11-24T04:29:50.886Z,3.00
2022-11-24T04:32:19.122Z,3.90
2022-11-24T04:34:47.381Z,3.40
2022-11-24T04:37:15.614Z,3.05
2022-11-24T04:39:44.847Z,2.70
2022-11-24T04:42:13.115Z,2.72
2022-11-24T04:44:42.709Z,2.13
2022-11-24T04:47:14.378Z,1.58
2022-11-24T04:49:42.601Z,1.70
2022-11-24T04:52:10.837Z,1.60
2022-11-24T04:54:39.037Z,1.60
2022-11-24T04:57:07.284Z,1.40
2022-11-24T04:59:35.506Z,1.30
2022-11-24T05:02:05.163Z,1.10
2022-11-24T05:04:33.778Z,1.00
2022-11-24T05:07:02.310Z,1.30
2022-11-24T05:09:48.177Z,0.80
2022-11-24T05:12:18.740Z,0.90
2022-11-24T05:14:46.985Z,0.90
2022-11-24T05:17:16.592Z,1.20
2022-11-24T05:19:44.916Z,1.00
2022-11-24T05:22:13.101Z,0.90
2022-11-24T05:24:41.389Z,0.90
2022-11-24T05:27:09.654Z,0.85
2022-11-24T05:29:37.958Z,0.60
2022-11-24T05:32:07.125Z,0.60
2022-11-24T05:34:36.805Z,0.90
2022-11-24T05:37:05.199Z,0.80
2022-11-24T05:39:33.972Z,0.80
2022-11-24T05:42:23.615Z,1.00
2022-11-24T05:44:52.000Z,0.70
2022-11-24T05:47:20.675Z,1.00
2022-11-24T05:49:50.294Z,0.80
2022-11-24T05:52:18.592Z,1.00
2022-11-24T05:54:46.902Z,0.70
2022-11-24T05:57:15.167Z,0.80
2022-11-24T05:59:43.471Z,0.70
2022-11-24T06:02:11.958Z,1.10
2022-11-24T06:04:40.396Z,1.00
2022-11-24T06:07:11.110Z,1.00
2022-11-24T06:09:39.433Z,1.10
2022-11-24T06:12:08.312Z,1.00
2022-11-24T06:14:36.670Z,1.00
2022-11-24T06:17:05.539Z,1.40
2022-11-24T06:19:37.364Z,1.60
2022-11-24T06:22:09.660Z,1.50
2022-11-24T06:24:37.920Z,1.80
2022-11-24T06:27:06.829Z,1.90
2022-11-24T06:29:35.082Z,2.08
2022-11-24T06:32:03.389Z,2.20
2022-11-24T06:34:32.017Z,2.55
2022-11-24T06:37:00.453Z,2.50
2022-11-24T06:39:30.089Z,2.30
2022-11-24T06:41:58.334Z,3.00
2022-11-24T06:44:26.760Z,2.78
2022-11-24T06:46:54.980Z,3.00
2022-11-24T06:49:23.286Z,3.10
2022-11-24T06:51:51.495Z,3.60
2022-11-24T06:54:21.136Z,3.30
2022-11-24T06:56:50.843Z,3.03
2022-11-24T06:59:19.912Z,3.60
2022-11-24T07:01:48.199Z,3.50
2022-11-24T07:04:16.786Z,3.78
2022-11-24T07:06:45.139Z,3.78
2022-11-24T07:09:14.348Z,3.30
2022-11-24T07:11:42.772Z,3.28
2022-11-24T07:14:12.738Z,4.40
2022-11-24T07:16:41.426Z,3.67
2022-11-24T07:19:10.641Z,4.07
2022-11-24T07:21:38.895Z,3.92
2022-11-24T07:24:07.576Z,3.67
2022-11-24T07:26:37.537Z,4.00
2022-11-24T07:29:06.163Z,4.05
2022-11-24T07:31:35.784Z,4.00
2022-11-24T07:34:04.077Z,4.10
2022-11-24T07:36:32.355Z,4.60
2022-11-24T07:39:00.573Z,4.22
2022-11-24T07:41:28.800Z,4.63
2022-11-24T07:43:57.297Z,4.20
2022-11-24T07:46:25.573Z,5.05
2022-11-24T07:48:55.282Z,5.20
2022-11-24T07:51:23.547Z,4.80
2022-11-24T07:53:51.793Z,4.90
2022-11-24T07:56:20.014Z,3.90
2022-11-24T07:58:52.669Z,4.47
2022-11-24T08:01:21.554Z,4.70
2022-11-24T08:03:49.894Z,4.63
2022-11-24T08:06:26.188Z,4.25
2022-11-24T08:08:56.144Z,4.97
2022-11-24T08:11:24.747Z,4.28
2022-11-24T08:13:53.086Z,4.90
2022-11-24T08:16:21.552Z,4.13
2022-11-24T08:18:53.443Z,4.10
2022-11-24T08:21:23.900Z,4.20
2022-11-24T08:23:55.368Z,3.67
2022-11-24T08:26:24.733Z,3.85
2022-11-24T08:28:55.052Z,4.15
2022-11-24T08:31:23.349Z,3.70
2022-11-24T08:33:51.655Z,3.10
2022-11-24T08:36:20.605Z,3.35
2022-11-24T08:38:50.376Z,2.80
2022-11-24T08:41:19.195Z,3.20
2022-11-24T08:43:47.471Z,3.20
2022-11-24T08:46:17.644Z,2.80
2022-11-24T08:48:46.402Z,2.67
2022-11-24T08:51:15.761Z,2.47
2022-11-24T08:53:44.188Z,2.40
2022-11-24T08:56:14.823Z,2.55
2022-11-24T08:58:43.606Z,2.63
2022-11-24T09:01:12.729Z,2.40
2022-11-24T09:03:45.025Z,2.22
2022-11-24T09:06:18.646Z,2.80
2022-11-24T09:08:46.909Z,2.97
2022-11-24T09:11:17.381Z,2.80
2022-11-24T09:13:45.889Z,2.40
2022-11-24T09:16:14.985Z,2.60
2022-11-24T09:18:43.361Z,2.60
2022-11-24T09:21:12.861Z,2.33
2022-11-24T09:23:41.419Z,2.90
2022-11-24T09:26:11.316Z,2.70
2022-11-24T09:28:40.963Z,2.60
2022-11-24T09:31:10.692Z,2.60
2022-11-24T09:33:39.037Z,2.58
2022-11-24T09:36:07.989Z,2.20
2022-11-24T09:38:36.307Z,2.30
2022-11-24T09:41:22.131Z,2.70
2022-11-24T09:43:56.253Z,2.35
2022-11-24T09:46:28.113Z,2.20
2022-11-24T09:48:58.821Z,2.45
2022-11-24T09:51:29.508Z,2.60
2022-11-24T09:53:59.030Z,2.20
2022-11-24T09:56:29.461Z,2.50
2022-11-24T09:59:02.738Z,2.30
2022-11-24T10:01:31.892Z,2.45
2022-11-24T10:04:06.057Z,2.80
2022-11-24T10:06:39.537Z,3.10
2022-11-24T10:09:14.676Z,2.50
2022-11-24T10:11:47.584Z,2.97
2022-11-24T10:14:25.699Z,2.40
2022-11-24T10:16:55.432Z,3.00
2022-11-24T10:19:36.413Z,3.00
2022-11-24T10:22:11.078Z,2.60
2022-11-24T10:24:53.034Z,2.75
2022-11-24T10:27:23.894Z,2.72
2022-11-24T10:29:55.015Z,3.00
2022-11-24T10:32:25.897Z,3.00
2022-11-24T10:34:55.392Z,3.58
2022-11-24T10:37:28.066Z,3.10
2022-11-24T10:40:00.828Z,3.30
2022-11-24T10:42:30.320Z,3.00
2022-11-24T10:45:03.553Z,3.60
2022-11-24T10:47:32.469Z,3.50
2022-11-24T10:50:03.850Z,3.20
2022-11-24T10:52:34.249Z,3.97
2022-11-24T10:55:04.150Z,3.25
2022-11-24T10:57:33.508Z,3.40
2022-11-24T11:00:03.546Z,3.80
2022-11-24T11:02:33.808Z,3.47
2022-11-24T11:05:22.224Z,3.60
2022-11-24T11:07:51.893Z,4.20
2022-11-24T11:10:21.485Z,4.15
2022-11-24T11:12:49.715Z,3.40
2022-11-24T11:15:23.544Z,3.90
2022-11-24T11:17:54.569Z,3.70
2022-11-24T11:20:26.207Z,3.50
2022-11-24T11:22:57.049Z,3.67
2022-11-24T11:25:27.077Z,3.55
2022-11-24T11:28:17.795Z,3.53
2022-11-24T11:31:16.357Z,3.10
2022-11-24T11:34:04.768Z,4.00
2022-11-24T11:36:35.418Z,3.22
2022-11-24T11:39:05.817Z,3.92
2022-11-24T11:41:35.788Z,3.20
2022-11-24T11:44:10.681Z,4.07
2022-11-24T11:46:39.030Z,4.03
2022-11-24T11:49:07.291Z,3.88
2022-11-24T11:51:43.726Z,3.47
2022-11-24T11:54:17.892Z,3.90
2022-11-24T11:56:47.568Z,3.90
2022-11-24T11:59:24.856Z,4.10
2022-11-24T12:02:11.139Z,3.45
2022-11-24T12:04:45.881Z,4.10
2022-11-24T12:07:24.209Z,4.13
2022-11-24T12:09:59.080Z,3.42
2022-11-24T12:12:42.968Z,3.60
2022-11-24T12:15:14.606Z,3.45
2022-11-24T12:17:45.820Z,3.83
2022-11-24T12:20:24.744Z,4.18
2022-11-24T12:22:57.156Z,3.97
2022-11-24T12:25:29.004Z,4.00
2022-11-24T12:28:03.941Z,3.15
2022-11-24T12:30:36.525Z,3.30
2022-11-24T12:33:11.474Z,3.70
2022-11-24T12:35:41.424Z,3.63
2022-11-24T12:38:19.717Z,3.63
2022-11-24T12:41:25.676Z,4.20
2022-11-24T12:43:52.285Z,3.65
2022-11-24T12:46:22.684Z,3.50
2022-11-24T12:48:54.953Z,4.10
2022-11-24T12:51:29.448Z,4.03
2022-11-24T12:53:59.431Z,3.70
2022-11-24T12:56:35.760Z,3.50
2022-11-24T12:59:29.066Z,3.97
2022-11-24T13:02:06.114Z,3.80
2022-11-24T13:04:42.200Z,3.72
2022-11-24T13:07:14.071Z,3.92
2022-11-24T13:13:11.552Z,4.13
2022-11-24T13:19:14.876Z,4.20
2022-11-24T13:21:51.947Z,4.30
2022-11-24T13:24:26.289Z,4.47
2022-11-24T13:26:56.228Z,3.60
2022-11-24T13:29:35.322Z,4.50
2022-11-24T13:32:52.152Z,4.00
2022-11-24T13:35:20.149Z,4.10
2022-11-24T13:37:53.560Z,4.35
2022-11-24T13:40:54.363Z,3.70
2022-11-24T13:43:30.108Z,4.20
2022-11-24T13:45:59.500Z,4.35
2022-11-24T13:49:00.955Z,4.07
2022-11-24T13:51:28.895Z,4.30
2022-11-24T13:54:00.816Z,3.80
2022-11-24T13:56:31.627Z,3.80
2022-11-24T13:59:02.265Z,3.70
2022-11-24T14:01:33.436Z,3.97
2022-11-24T14:04:31.009Z,4.00
2022-11-24T14:07:07.919Z,4.20
2022-11-24T14:09:41.412Z,3.75
2022-11-24T14:12:14.949Z,3.87
2022-11-24T14:14:44.083Z,3.60
2022-11-24T14:17:22.667Z,3.65
2022-11-24T14:19:52.016Z,4.30
2022-11-24T14:22:22.669Z,3.33
2022-11-24T14:24:56.526Z,3.70
2022-11-24T14:27:30.541Z,4.40
2022-11-24T14:30:00.519Z,4.10
2022-11-24T14:32:30.004Z,3.28
2022-11-24T14:34:58.272Z,4.00
2022-11-24T14:37:26.279Z,3.60
2022-11-24T14:39:54.240Z,4.00
2022-11-24T14:42:24.149Z,4.43
2022-11-24T14:44:55.740Z,4.22
2022-11-24T14:47:31.181Z,4.55
2022-11-24T14:50:11.027Z,4.28
2022-11-24T14:52:46.494Z,6.73
2022-11-24T14:55:29.036Z,6.53
2022-11-24T14:57:57.484Z,4.60
2022-11-24T15:00:30.952Z,4.88
2022-11-24T15:03:16.118Z,3.97
2022-11-24T15:05:57.125Z,3.85
2022-11-24T15:08:26.499Z,4.20
2022-11-24T15:11:00.135Z,5.20
2022-11-24T15:13:28.884Z,4.30
2022-11-24T15:16:02.972Z,4.10
2022-11-24T15:18:37.355Z,4.53
2022-11-24T15:21:07.139Z,4.63
2022-11-24T15:23:36.209Z,5.75
2022-11-24T15:26:31.289Z,4.80
2022-11-24T15:29:01.082Z,4.13
2022-11-24T15:31:29.090Z,3.83
2022-11-24T15:33:57.038Z,3.75
2022-11-24T15:36:26.353Z,4.20
2022-11-24T15:38:54.335Z,4.10
2022-11-24T15:41:23.768Z,3.20
2022-11-24T15:43:58.767Z,3.42
2022-11-24T15:46:27.557Z,2.80
2022-11-24T15:48:55.708Z,3.20
2022-11-24T15:51:26.981Z,3.83
2022-11-24T15:54:00.806Z,2.83
2022-11-24T15:56:31.835Z,3.60
2022-11-24T15:58:59.772Z,3.50
2022-11-24T16:01:31.109Z,3.30
2022-11-24T16:03:59.252Z,3.70
2022-11-24T16:06:28.548Z,3.20
2022-11-24T16:08:58.040Z,3.63
2022-11-24T16:11:26.112Z,3.60
2022-11-24T16:13:54.660Z,3.90
2022-11-24T16:16:24.677Z,3.20
2022-11-24T16:18:52.819Z,3.72
2022-11-24T16:21:20.790Z,3.72
2022-11-24T16:23:50.151Z,3.70
2022-11-24T16:26:18.210Z,3.38
2022-11-24T16:28:46.313Z,3.50
2022-11-24T16:31:16.015Z,4.00
2022-11-24T16:33:45.420Z,3.53
2022-11-24T16:36:13.419Z,3.80
2022-11-24T16:38:41.384Z,3.15
2022-11-24T16:41:10.993Z,4.00
2022-11-24T16:43:39.201Z,3.60
2022-11-24T16:46:18.591Z,3.80
2022-11-24T16:48:46.923Z,3.55
2022-11-24T16:51:15.435Z,3.30
2022-11-24T16:53:44.151Z,3.50
2022-11-24T16:56:14.733Z,3.80
2022-11-24T16:58:42.802Z,3.67
2022-11-24T17:01:12.694Z,4.10
2022-11-24T17:03:41.193Z,3.40
2022-11-24T17:06:11.308Z,3.30
2022-11-24T17:08:41.302Z,4.15
2022-11-24T17:11:10.420Z,4.35
2022-11-24T17:13:40.164Z,3.72
2022-11-24T17:16:09.980Z,4.20
2022-11-24T17:18:38.515Z,4.00
2022-11-24T17:21:10.803Z,3.35
2022-11-24T17:23:39.164Z,4.30
2022-11-24T17:26:09.074Z,4.25
2022-11-24T17:28:37.619Z,4.30
2022-11-24T17:31:10.607Z,4.20
2022-11-24T17:33:38.547Z,4.65
2022-11-24T17:36:07.755Z,3.60
2022-11-24T17:38:36.910Z,4.47
2022-11-24T17:41:05.088Z,4.18
2022-11-24T17:43:33.311Z,3.85
2022-11-24T17:46:03.505Z,3.60
2022-11-24T17:48:33.264Z,3.50
2022-11-24T17:51:02.589Z,3.90
2022-11-24T17:53:31.183Z,4.63
2022-11-24T17:56:01.115Z,4.15
2022-11-24T17:58:29.558Z,3.65
2022-11-24T18:00:58.395Z,4.20
2022-11-24T18:03:28.687Z,4.40
2022-11-24T18:05:58.127Z,4.57
2022-11-24T18:08:26.128Z,4.75
2022-11-24T18:10:53.996Z,4.05
2022-11-24T18:13:54.451Z,4.30
2022-11-24T18:16:11.483Z,3.97
2022-11-24T18:18:40.432Z,3.78
2022-11-24T18:21:14.604Z,3.85
2022-11-24T18:23:43.427Z,4.07
2022-11-24T18:26:12.956Z,3.88
2022-11-24T18:28:40.886Z,3.67
2022-11-24T18:31:11.024Z,3.60
2022-11-24T18:33:40.007Z,3.70
2022-11-24T18:36:09.527Z,3.28
2022-11-24T18:38:39.127Z,4.15
2022-11-24T18:41:08.189Z,4.57
2022-11-24T18:43:38.134Z,3.80
2022-11-24T18:46:08.167Z,3.53
2022-11-24T18:48:36.535Z,4.23
2022-11-24T18:51:04.853Z,3.70
2022-11-24T18:53:32.820Z,5.38
2022-11-24T18:56:03.660Z,5.28
2022-11-24T18:58:33.077Z,4.15
2022-11-24T19:01:08.273Z,4.38
2022-11-24T19:03:42.358Z,4.93
2022-11-24T19:06:16.352Z,4.53
2022-11-24T19:08:45.011Z,4.40
2022-11-24T19:11:19.608Z,5.20
2022-11-24T19:13:48.830Z,4.50
2022-11-24T19:16:17.644Z,4.60
2022-11-24T19:18:51.844Z,4.50
2022-11-24T19:21:21.481Z,4.53
2022-11-24T19:23:49.772Z,4.80
2022-11-24T19:26:19.507Z,4.10
2022-11-24T19:28:47.506Z,4.00
2022-11-24T19:31:16.980Z,4.50
2022-11-24T19:33:45.527Z,3.90
2022-11-24T19:36:15.512Z,4.50
2022-11-24T19:38:44.392Z,3.80
2022-11-24T19:41:13.934Z,4.10
2022-11-24T19:43:43.716Z,3.90
2022-11-24T19:46:13.197Z,3.90
2022-11-24T19:48:43.943Z,3.60
2022-11-24T19:51:13.878Z,4.28
2022-11-24T19:53:43.143Z,4.25
2022-11-24T19:56:12.776Z,3.45
2022-11-24T19:58:41.847Z,3.80
2022-11-24T20:01:13.094Z,3.60
2022-11-24T20:03:42.665Z,3.97
2022-11-24T20:06:12.949Z,3.93
2022-11-24T20:08:41.949Z,4.55
2022-11-24T20:11:12.115Z,4.30
2022-11-24T20:13:41.722Z,3.90
2022-11-24T20:16:13.169Z,3.60
2022-11-24T20:18:43.899Z,3.83
2022-11-24T20:21:14.292Z,3.85
2022-11-24T20:23:43.686Z,3.85
2022-11-24T20:26:14.121Z,3.20
2022-11-24T20:28:42.692Z,3.70
2022-11-24T20:31:14.746Z,3.60
2022-11-24T20:33:43.237Z,3.70
2022-11-24T20:36:12.863Z,4.00
2022-11-24T20:38:42.095Z,4.33
2022-11-24T20:41:11.879Z,3.30
2022-11-24T20:43:41.130Z,3.60
2022-11-24T20:46:13.003Z,3.65
2022-11-24T20:48:41.289Z,3.67
2022-11-24T20:51:11.109Z,3.47
2022-11-24T20:53:39.684Z,4.05
2022-11-24T20:56:10.832Z,3.60
2022-11-24T20:58:39.552Z,3.42
2022-11-24T21:01:09.617Z,3.17
2022-11-24T21:03:43.246Z,3.88
2022-11-24T21:06:13.748Z,3.50
2022-11-24T21:08:43.209Z,4.30
2022-11-24T21:11:13.663Z,4.10
2022-11-24T21:13:43.736Z,4.00
2022-11-24T21:16:16.739Z,4.00
2022-11-24T21:18:47.224Z,3.85
2022-11-24T21:21:15.689Z,3.90
2022-11-24T21:23:45.086Z,3.80
2022-11-24T21:26:16.943Z,4.00
2022-11-24T21:28:46.581Z,4.17
2022-11-24T21:31:17.366Z,4.40
2022-11-24T21:33:48.444Z,4.13
2022-11-24T21:36:17.995Z,3.60
2022-11-24T21:38:50.431Z,4.10
2022-11-24T21:41:18.505Z,4.20
2022-11-24T21:43:46.451Z,4.03
2022-11-24T21:46:15.237Z,3.97
2022-11-24T21:48:43.756Z,3.92
2022-11-24T21:51:15.508Z,3.60
2022-11-24T21:53:44.393Z,3.95
2022-11-24T21:56:14.527Z,3.55
2022-11-24T21:58:47.154Z,4.30
2022-11-24T22:01:16.280Z,4.60
2022-11-24T22:03:44.652Z,4.40
2022-11-24T22:06:14.159Z,3.83
2022-11-24T22:08:42.152Z,4.18
2022-11-24T22:11:13.805Z,3.70
2022-11-24T22:13:42.695Z,4.60
2022-11-24T22:16:12.657Z,3.60
2022-11-24T22:18:42.197Z,3.95
2022-11-24T22:21:14.429Z,3.90
2022-11-24T22:23:42.842Z,4.03
2022-11-24T22:26:14.160Z,3.80
2022-11-24T22:28:42.692Z,3.90
2022-11-24T22:31:12.972Z,3.90
2022-11-24T22:33:41.142Z,3.60
2022-11-24T22:36:10.893Z,3.78
2022-11-24T22:38:40.389Z,4.07
2022-11-24T22:41:10.460Z,4.30
2022-11-24T22:43:40.193Z,3.50
2022-11-24T22:46:10.902Z,3.20
2022-11-24T22:48:39.456Z,3.65
2022-11-24T22:51:09.395Z,4.20
2022-11-24T22:53:37.739Z,3.30
2022-11-24T22:56:09.397Z,4.20
2022-11-24T22:58:37.952Z,3.80
2022-11-24T23:01:06.919Z,4.30
2022-11-24T23:03:35.461Z,3.90
2022-11-24T23:06:04.455Z,4.40
2022-11-24T23:08:34.603Z,3.97
2022-11-24T23:11:03.337Z,3.88
2022-11-24T23:13:32.703Z,3.22
2022-11-24T23:16:02.522Z,3.70
2022-11-24T23:18:30.894Z,4.10
2022-11-24T23:21:04.580Z,3.33
2022-11-24T23:23:32.504Z,3.83
2022-11-24T23:26:01.454Z,3.85
2022-11-24T23:28:29.403Z,3.78
2022-11-24T23:31:03.962Z,3.92
2022-11-24T23:33:32.600Z,3.95
2022-11-24T23:36:02.314Z,4.50
2022-11-24T23:38:32.453Z,4.40
2022-11-24T23:41:04.047Z,4.53
2022-11-24T23:43:32.259Z,3.92
2022-11-24T23:46:04.575Z,3.42
2022-11-24T23:48:32.986Z,3.67
2022-11-24T23:51:05.407Z,3.92
2022-11-24T23:53:33.676Z,4.20
2022-11-24T23:56:02.077Z,3.65
2022-11-24T23:58:30.564Z,3.72
